Time;durP1;ratioP1;P1;durP2;ratioP2;P2;SDS_P1;SDS_P2;PMS_P1;PMS_P2;Temp;Humidity;BMP_temperature;BMP_pressure;BME280_temperature;BME280_humidity;BME280_pressure;Samples;Min_cycle;Max_cycle;Signal;HPM_P1;HPM_P2
2021/09/01 00:02:02;;;;;;;0.40;0.40;;;13.30;30.50;;;;;;4873175;28;20213;-81
2021/09/01 00:04:24;;;;;;;0.47;0.47;;;13.30;30.30;;;;;;4877817;28;20830;-78
2021/09/01 00:06:47;;;;;;;0.40;0.40;;;;;;;;;;4893692;28;20258;-80
2021/09/01 00:09:10;;;;;;;0.93;0.83;;;;;;;;;;4877927;28;20200;-79
2021/09/01 00:11:33;;;;;;;0.47;0.47;;;;;;;;;;4878351;28;20192;-79
2021/09/01 00:13:55;;;;;;;0.50;0.50;;;;;;;;;;4878236;28;20193;-79
2021/09/01 00:16:28;;;;;;;0.93;0.80;;;;;;;;;;4878531;28;20239;-81
2021/09/01 00:18:52;;;;;;;0.53;0.50;;;13.30;99.90;;;;;;4859989;28;20206;-78
2021/09/01 00:21:14;;;;;;;0.93;0.83;;;12.80;99.90;;;;;;4893323;28;20631;-79
2021/09/01 00:23:37;;;;;;;0.60;0.60;;;;;;;;;;4878657;28;20243;-80
2021/09/01 00:26:00;;;;;;;0.30;0.27;;;;;;;;;;4860329;28;20275;-83
2021/09/01 00:28:22;;;;;;;1.10;0.77;;;;;;;;;;4843571;28;20215;-81
2021/09/01 00:30:45;;;;;;;0.73;0.60;;;;;;;;;;4860535;28;20201;-79
2021/09/01 00:33:08;;;;;;;1.23;0.93;;;;;;;;;;4860361;28;20316;-81
2021/09/01 00:35:31;;;;;;;0.50;0.50;;;13.20;30.40;;;;;;4843933;28;20193;-80
2021/09/01 00:37:54;;;;;;;0.50;0.50;;;;;;;;;;4878305;28;20239;-80
2021/09/01 00:40:17;;;;;;;1.20;0.90;;;13.00;30.10;;;;;;4859537;28;20214;-80
2021/09/01 00:42:39;;;;;;;0.50;0.50;;;;;;;;;;4878099;28;20244;-79
2021/09/01 00:45:03;;;;;;;0.67;0.57;;;15.10;31.50;;;;;;4860102;28;20576;-79
2021/09/01 00:47:26;;;;;;;0.40;0.40;;;;;;;;;;4860308;28;20198;-79
2021/09/01 00:49:49;;;;;;;0.67;0.60;;;13.30;30.30;;;;;;4859584;28;20206;-80
2021/09/01 00:52:13;;;;;;;0.90;0.70;;;13.20;30.80;;;;;;4893322;28;20189;-79
2021/09/01 00:54:36;;;;;;;0.63;0.60;;;;;;;;;;4859807;28;20695;-79
2021/09/01 00:57:01;;;;;;;0.80;0.60;;;13.40;30.80;;;;;;4877852;28;20213;-80
2021/09/01 00:59:25;;;;;;;0.63;0.50;;;13.20;31.40;;;;;;4877387;28;20231;-78
2021/09/01 01:01:48;;;;;;;0.70;0.60;;;13.60;31.00;;;;;;4890965;28;20702;-85
2021/09/01 01:04:13;;;;;;;1.00;0.80;;;;;;;;;;4893155;28;20218;-80
2021/09/01 01:06:36;;;;;;;0.83;0.60;;;;;;;;;;4843280;28;20276;-81
2021/09/01 01:09:00;;;;;;;0.43;0.40;;;13.00;31.40;;;;;;4859268;28;20229;-81
2021/09/01 01:11:23;;;;;;;0.37;0.33;;;13.20;31.50;;;;;;4877678;28;20678;-81
2021/09/01 01:13:46;;;;;;;0.57;0.50;;;13.30;31.40;;;;;;4892828;28;20208;-80
2021/09/01 01:16:09;;;;;;;1.47;1.03;;;;;;;;;;4859385;28;20186;-81
2021/09/01 01:18:31;;;;;;;2.43;1.70;;;;;;;;;;4876714;28;20264;-81
2021/09/01 01:20:55;;;;;;;0.67;0.60;;;13.10;32.10;;;;;;4859693;28;20202;-82
2021/09/01 01:23:19;;;;;;;0.87;0.83;;;13.10;32.40;;;;;;4858992;28;20249;-79
2021/09/01 01:25:43;;;;;;;0.33;0.33;;;13.20;31.60;;;;;;4859565;28;20198;-78
2021/09/01 01:28:07;;;;;;;1.50;1.07;;;13.10;32.60;;;;;;4877259;28;20251;-83
2021/09/01 01:30:30;;;;;;;0.53;0.53;;;;;;;;;;4858821;28;20616;-80
2021/09/01 01:32:54;;;;;;;0.50;0.50;;;12.30;31.30;;;;;;4877462;28;20189;-79
2021/09/01 01:35:25;;;;;;;1.00;0.87;;;13.40;31.40;;;;;;4877095;28;20193;-83
2021/09/01 01:37:48;;;;;;;0.40;0.40;;;;;;;;;;4859484;28;20292;-82
2021/09/01 01:40:11;;;;;;;1.13;0.83;;;12.80;31.60;;;;;;4876373;28;20213;-81
2021/09/01 01:42:40;;;;;;;0.50;0.50;;;13.20;31.40;;;;;;4877024;28;20201;-82
2021/09/01 01:45:04;;;;;;;1.13;0.87;;;13.10;31.80;;;;;;4859309;28;20207;-81
2021/09/01 01:47:26;;;;;;;0.50;0.50;;;;;;;;;;4877119;28;20205;-79
2021/09/01 01:49:49;;;;;;;0.60;0.57;;;12.40;31.80;;;;;;4876333;28;20187;-82
2021/09/01 01:52:12;;;;;;;0.80;0.63;;;;;;;;;;4858855;28;20198;-84
2021/09/01 01:54:35;;;;;;;0.60;0.50;;;;;;;;;;4876994;28;20182;-81
2021/09/01 01:56:57;;;;;;;0.50;0.50;;;;;;;;;;4876725;28;20243;-81
2021/09/01 01:59:21;;;;;;;0.27;0.27;;;13.00;32.60;;;;;;4876164;28;20707;-80
2021/09/01 02:01:44;;;;;;;0.43;0.43;;;;;;;;;;4874941;28;20192;-82
2021/09/01 02:04:07;;;;;;;1.03;0.90;;;;;;;;;;4876614;28;20244;-81
2021/09/01 02:06:29;;;;;;;0.50;0.50;;;;;;;;;;4876760;28;20194;-79
2021/09/01 02:08:52;;;;;;;0.50;0.50;;;13.10;32.10;;;;;;4858152;28;20210;-80
2021/09/01 02:11:14;;;;;;;0.97;0.80;;;;;;;;;;4876309;28;20215;-83
2021/09/01 02:13:37;;;;;;;0.57;0.50;;;;;;;;;;4858990;28;20202;-80
2021/09/01 02:16:01;;;;;;;0.20;0.20;;;12.90;32.80;;;;;;4858705;28;20268;-82
2021/09/01 02:18:24;;;;;;;1.63;1.17;;;;;;;;;;4875972;28;20193;-81
2021/09/01 02:20:46;;;;;;;0.70;0.60;;;13.10;32.40;;;;;;4892000;28;20246;-80
2021/09/01 02:23:09;;;;;;;1.03;0.93;;;12.90;32.80;;;;;;4857974;28;20288;-81
2021/09/01 02:25:31;;;;;;;0.40;0.40;;;13.20;32.00;;;;;;4858578;28;20194;-83
2021/09/01 02:27:55;;;;;;;0.50;0.50;;;13.10;32.20;;;;;;4858249;28;20206;-79
2021/09/01 02:30:19;;;;;;;0.97;0.77;;;;;;;;;;4875535;28;20667;-83
2021/09/01 02:32:43;;;;;;;0.20;0.20;;;13.00;32.50;;;;;;4876471;28;20193;-83
2021/09/01 02:35:06;;;;;;;0.80;0.80;;;12.90;31.90;;;;;;4858191;28;20252;-79
2021/09/01 02:37:28;;;;;;;0.53;0.53;;;;;;;;;;4876346;28;20181;-82
2021/09/01 02:39:51;;;;;;;0.50;0.50;;;;;;;;;;4891017;28;20212;-83
2021/09/01 02:42:14;;;;;;;1.33;0.93;;;;;;;;;;4891300;28;20196;-81
2021/09/01 02:44:37;;;;;;;0.70;0.60;;;12.90;32.40;;;;;;4858386;28;20206;-85
2021/09/01 02:47:00;;;;;;;0.40;0.40;;;;;;;;;;4876064;28;20185;-80
2021/09/01 02:49:24;;;;;;;0.40;0.37;;;12.90;32.90;;;;;;4875439;28;20189;-79
2021/09/01 02:51:50;;;;;;;0.40;0.40;;;;;;;;;;4891686;28;20239;-80
2021/09/01 02:54:12;;;;;;;1.10;0.80;;;;;;;;;;4875936;28;20209;-82
2021/09/01 02:56:35;;;;;;;0.67;0.63;;;;;;;;;;4875773;28;20236;-80
2021/09/01 02:58:58;;;;;;;0.40;0.40;;;;;;;;;;4891012;28;20246;-84
2021/09/01 03:01:20;;;;;;;0.40;0.40;;;12.90;32.80;;;;;;4889726;28;20196;-82
2021/09/01 03:03:43;;;;;;;0.47;0.47;;;12.80;32.10;;;;;;4876022;28;20686;-84
2021/09/01 03:06:07;;;;;;;0.70;0.67;;;12.80;33.20;;;;;;4876002;28;20185;-80
2021/09/01 03:08:29;;;;;;;3.13;1.97;;;;;;;;;;4875284;28;20185;-82
2021/09/01 03:10:52;;;;;;;0.50;0.50;;;12.90;32.40;;;;;;4858013;28;20252;-79
2021/09/01 03:13:15;;;;;;;1.03;0.83;;;;;;;;;;4857434;28;20235;-80
2021/09/01 03:15:37;;;;;;;0.50;0.50;;;;;;;;;;4875818;28;20189;-81
2021/09/01 03:18:00;;;;;;;0.63;0.50;;;;;;;;;;4857682;28;20198;-79
2021/09/01 03:20:23;;;;;;;0.47;0.47;;;12.40;32.30;;;;;;4875097;28;20235;-79
2021/09/01 03:22:47;;;;;;;0.50;0.50;;;12.80;33.40;;;;;;4857957;28;20253;-81
2021/09/01 03:25:10;;;;;;;0.90;0.70;;;12.80;32.40;;;;;;4857790;28;20264;-80
2021/09/01 03:27:33;;;;;;;0.93;0.60;;;;;;;;;;4875772;28;20246;-81
2021/09/01 03:29:56;;;;;;;0.50;0.50;;;;;;;;;;4875166;28;20243;-80
2021/09/01 03:32:19;;;;;;;0.83;0.80;;;12.50;32.70;;;;;;4857673;28;20256;-80
2021/09/01 03:34:41;;;;;;;0.97;0.67;;;12.30;32.90;;;;;;4875718;28;20555;-80
2021/09/01 03:37:04;;;;;;;1.27;0.90;;;13.00;32.80;;;;;;4875492;28;20186;-78
2021/09/01 03:39:28;;;;;;;0.53;0.53;;;12.60;33.00;;;;;;4877666;28;20177;-80
2021/09/01 03:41:50;;;;;;;0.60;0.57;;;12.30;32.90;;;;;;4861375;28;20643;-80
2021/09/01 03:44:13;;;;;;;1.23;1.03;;;13.40;32.50;;;;;;4879180;28;20678;-80
2021/09/01 03:46:36;;;;;;;0.67;0.60;;;;;;;;;;4861978;28;20252;-79
2021/09/01 03:48:59;;;;;;;0.57;0.50;;;;;;;;;;4860945;28;20253;-79
2021/09/01 03:51:21;;;;;;;0.40;0.40;;;;;;;;;;4861465;28;20198;-77
2021/09/01 03:53:44;;;;;;;0.63;0.50;;;;;;;;;;4861455;28;20268;-77
2021/09/01 03:56:09;;;;;;;1.50;1.07;;;12.70;32.80;;;;;;4860937;28;20222;-80
2021/09/01 03:58:32;;;;;;;1.90;1.40;;;12.60;32.90;;;;;;4843971;28;20270;-81
2021/09/01 04:00:54;;;;;;;0.60;0.50;;;12.50;33.70;;;;;;4877081;28;20193;-82
2021/09/01 04:03:17;;;;;;;0.93;0.80;;;;;;;;;;4878857;28;20686;-77
2021/09/01 04:05:40;;;;;;;0.40;0.40;;;;;;;;;;4861243;28;20256;-80
2021/09/01 04:08:02;;;;;;;0.77;0.63;;;12.00;33.20;;;;;;4860766;28;20656;-77
2021/09/01 04:10:25;;;;;;;0.70;0.50;;;;;;;;;;4860160;28;20202;-81
2021/09/01 04:12:49;;;;;;;0.60;0.60;;;13.00;33.10;;;;;;4878930;28;20208;-78
2021/09/01 04:15:12;;;;;;;1.17;0.80;;;12.00;32.80;;;;;;4860758;28;20202;-78
2021/09/01 04:17:35;;;;;;;0.50;0.50;;;;;;;;;;4843908;28;20240;-79
2021/09/01 04:19:58;;;;;;;0.40;0.40;;;;;;;;;;4860163;28;20213;-79
2021/09/01 04:22:20;;;;;;;0.37;0.37;;;12.90;33.20;;;;;;4844111;28;20198;-78
2021/09/01 04:24:43;;;;;;;0.47;0.47;;;13.00;32.80;;;;;;4878609;28;20270;-76
2021/09/01 04:27:06;;;;;;;1.47;1.07;;;12.90;32.40;;;;;;4878294;28;20577;-77
2021/09/01 04:29:29;;;;;;;0.70;0.63;;;12.70;33.10;;;;;;4877822;28;20224;-82
2021/09/01 04:31:52;;;;;;;0.53;0.53;;;;;;;;;;4878017;28;20185;-79
2021/09/01 04:34:15;;;;;;;1.23;0.90;;;;;;;;;;4878353;28;20186;-77
2021/09/01 04:36:37;;;;;;;0.70;0.70;;;;;;;;;;4878304;28;20186;-82
2021/09/01 04:39:00;;;;;;;0.40;0.40;;;;;;;;;;4877682;28;20655;-78
2021/09/01 04:41:23;;;;;;;0.63;0.47;;;13.10;32.60;;;;;;4878310;28;20185;-77
2021/09/01 04:43:45;;;;;;;0.47;0.43;;;12.70;32.80;;;;;;4843840;28;20645;-78
2021/09/01 04:46:09;;;;;;;1.33;0.97;;;12.80;34.10;;;;;;4878170;28;20232;-76
2021/09/01 04:48:32;;;;;;;2.27;1.73;;;;;;;;;;4877564;28;20177;-80
2021/09/01 04:50:55;;;;;;;0.47;0.47;;;;;;;;;;4892953;28;20228;-81
2021/09/01 04:53:17;;;;;;;0.93;0.80;;;12.70;34.10;;;;;;4860043;28;20252;-79
2021/09/01 04:55:40;;;;;;;0.30;0.30;;;;;;;;;;4859935;28;20226;-76
2021/09/01 04:58:02;;;;;;;0.73;0.63;;;12.40;32.80;;;;;;4878368;28;20206;-81
2021/09/01 05:00:25;;;;;;;4.47;2.27;;;;;;;;;;4858244;28;20640;-78
2021/09/01 05:02:49;;;;;;;0.47;0.40;;;12.60;32.20;;;;;;4877658;28;20219;-85
2021/09/01 05:05:12;;;;;;;1.43;0.93;;;12.90;32.20;;;;;;4877640;28;20573;-78
2021/09/01 05:07:34;;;;;;;0.53;0.50;;;;;;;;;;4877472;28;20189;-81
2021/09/01 05:09:57;;;;;;;0.50;0.50;;;;;;;;;;4875949;28;20247;-77
2021/09/01 05:12:21;;;;;;;0.47;0.43;;;;;;;;;;4877899;28;20209;-78
2021/09/01 05:14:43;;;;;;;0.40;0.40;;;12.90;33.80;;;;;;4877836;28;20178;-75
2021/09/01 05:17:06;;;;;;;1.33;0.93;;;13.00;35.00;;;;;;4877558;28;20186;-81
2021/09/01 05:19:30;;;;;;;0.57;0.50;;;12.90;34.80;;;;;;4859172;28;20201;-85
2021/09/01 05:21:54;;;;;;;0.50;0.50;;;12.90;34.80;;;;;;4877572;28;20227;-79
2021/09/01 05:24:28;;;;;;;0.83;0.80;;;12.90;34.90;;;;;;4877187;28;20274;-80
2021/09/01 05:26:56;;;;;;;0.63;0.60;;;12.90;35.40;;;;;;4877443;28;20172;-76
2021/09/01 05:29:25;;;;;;;0.83;0.70;;;12.90;35.60;;;;;;4876629;28;20270;-83
2021/09/01 05:31:47;;;;;;;0.77;0.60;;;13.20;34.80;;;;;;4877609;28;20192;-87
2021/09/01 05:34:11;;;;;;;1.27;1.00;;;13.00;36.00;;;;;;4859161;28;20554;-78
2021/09/01 05:36:36;;;;;;;0.43;0.43;;;13.00;36.10;;;;;;4877416;28;20231;-78
2021/09/01 05:38:59;;;;;;;0.93;0.73;;;;;;;;;;4858758;28;20206;-79
2021/09/01 05:41:22;;;;;;;0.23;0.23;;;;;;;;;;4877196;28;20189;-83
2021/09/01 05:43:46;;;;;;;0.60;0.60;;;13.10;35.30;;;;;;4859305;28;20738;-86
2021/09/01 05:46:08;;;;;;;1.40;1.00;;;12.70;35.60;;;;;;4842467;28;20676;-77
2021/09/01 05:48:34;;;;;;;2.43;1.70;;;13.00;35.90;;;;;;4858584;28;20206;-82
2021/09/01 05:50:57;;;;;;;0.40;0.40;;;12.80;34.40;;;;;;4859152;28;20230;-78
2021/09/01 05:53:22;;;;;;;0.40;0.40;;;13.10;35.50;;;;;;4876974;28;20250;-78
2021/09/01 05:55:49;;;;;;;0.70;0.57;;;13.30;34.90;;;;;;4858813;28;20279;-76
2021/09/01 05:58:15;;;;;;;1.03;0.80;;;13.10;36.50;;;;;;4842559;28;20224;-80
2021/09/01 06:00:39;;;;;;;6.27;4.43;;;13.40;36.60;;;;;;4855689;28;20660;-82
2021/09/01 06:03:07;;;;;;;0.80;0.67;;;12.70;35.90;;;;;;4858594;28;20202;-80
2021/09/01 06:05:30;;;;;;;0.50;0.50;;;;;;;;;;4876679;28;20197;-77
2021/09/01 06:07:55;;;;;;;0.60;0.50;;;13.30;36.00;;;;;;4858979;28;20256;-79
2021/09/01 06:10:23;;;;;;;1.43;1.17;;;13.10;36.70;;;;;;4875781;28;20186;-82
2021/09/01 06:12:47;;;;;;;0.70;0.60;;;13.10;37.20;;;;;;4858868;28;20561;-78
2021/09/01 06:15:11;;;;;;;1.03;0.80;;;13.10;37.30;;;;;;4876378;28;20186;-82
2021/09/01 06:17:33;;;;;;;0.50;0.50;;;;;;;;;;4876643;28;20186;-84
2021/09/01 06:19:56;;;;;;;0.60;0.60;;;13.10;36.30;;;;;;4875668;28;20190;-80
2021/09/01 06:22:19;;;;;;;0.70;0.60;;;;;;;;;;4858518;28;20312;-84
2021/09/01 06:24:42;;;;;;;0.33;0.33;;;13.10;36.30;;;;;;4858481;28;20230;-78
2021/09/01 06:27:07;;;;;;;1.17;0.90;;;13.20;37.60;;;;;;4842140;28;20267;-84
2021/09/01 06:29:30;;;;;;;0.87;0.80;;;13.30;36.70;;;;;;4857639;28;20225;-76
2021/09/01 06:31:53;;;;;;;0.50;0.47;;;;;;;;;;4876262;28;20193;-79
2021/09/01 06:34:15;;;;;;;1.03;0.90;;;;;;;;;;4876102;28;20595;-76
2021/09/01 06:36:38;;;;;;;0.50;0.50;;;;;;;;;;4858297;28;20661;-82
2021/09/01 06:39:01;;;;;;;0.60;0.40;;;;;;;;;;4857546;28;20236;-82
2021/09/01 06:41:23;;;;;;;0.50;0.40;;;;;;;;;;4857857;28;21031;-80
2021/09/01 06:43:47;;;;;;;0.83;0.67;;;13.30;38.60;;;;;;4876176;28;20189;-77
2021/09/01 06:46:10;;;;;;;1.20;0.87;;;;;;;;;;4858038;28;20244;-78
2021/09/01 06:48:33;;;;;;;2.90;1.87;;;;;;;;;;4857539;28;20205;-79
2021/09/01 06:50:55;;;;;;;0.43;0.43;;;;;;;;;;4858240;28;20383;-77
2021/09/01 06:53:18;;;;;;;0.83;0.67;;;12.90;37.10;;;;;;4858072;28;20260;-79
2021/09/01 06:55:41;;;;;;;0.40;0.40;;;;;;;;;;4855355;28;20249;-79
2021/09/01 06:58:13;;;;;;;1.00;0.73;;;13.50;37.20;;;;;;4855439;28;20558;-78
2021/09/01 07:00:37;;;;;;;7.00;4.73;;;13.50;37.90;;;;;;4852938;28;20249;-78
2021/09/01 07:02:59;;;;;;;0.60;0.40;;;13.30;38.00;;;;;;4888904;28;20193;-79
2021/09/01 07:05:22;;;;;;;0.33;0.33;;;;;;;;;;4855431;28;20288;-79
2021/09/01 07:07:45;;;;;;;0.63;0.50;;;13.80;38.30;;;;;;4871965;28;20201;-78
2021/09/01 07:10:09;;;;;;;1.53;0.90;;;13.40;39.00;;;;;;4855871;28;20236;-78
2021/09/01 07:12:31;;;;;;;0.67;0.50;;;14.40;39.70;;;;;;4856623;28;20225;-77
2021/09/01 07:14:54;;;;;;;0.57;0.50;;;;;;;;;;4860650;28;20552;-79
2021/09/01 07:17:18;;;;;;;0.97;0.80;;;13.70;39.50;;;;;;4858383;28;20237;-85
2021/09/01 07:19:43;;;;;;;0.67;0.53;;;;;;;;;;4859750;28;20189;-79
2021/09/01 07:22:06;;;;;;;1.03;0.70;;;;;;;;;;4859183;28;20295;-80
2021/09/01 07:24:29;;;;;;;0.60;0.60;;;14.10;40.30;;;;;;4842463;28;20202;-79
2021/09/01 07:26:51;;;;;;;0.63;0.60;;;13.70;40.30;;;;;;4860310;28;20181;-78
2021/09/01 07:29:14;;;;;;;0.97;0.80;;;;;;;;;;4859521;28;20252;-79
2021/09/01 07:31:36;;;;;;;0.70;0.50;;;13.70;42.10;;;;;;4858950;28;20559;-79
2021/09/01 07:34:00;;;;;;;0.67;0.60;;;13.80;42.00;;;;;;4859125;28;20229;-83
2021/09/01 07:36:23;;;;;;;0.37;0.33;;;;;;;;;;4858986;28;20198;-79
2021/09/01 07:38:45;;;;;;;0.70;0.57;;;13.80;40.70;;;;;;4859637;28;20190;-89
2021/09/01 07:41:08;;;;;;;1.33;0.97;;;14.00;40.30;;;;;;4860037;28;20224;-82
2021/09/01 07:43:31;;;;;;;0.60;0.53;;;;;;;;;;4860844;28;20718;-86
2021/09/01 07:45:54;;;;;;;0.30;0.30;;;;;;;;;;4860398;28;20769;-86
2021/09/01 07:48:17;;;;;;;1.13;0.80;;;14.00;41.30;;;;;;4860230;28;20557;-85
2021/09/01 07:50:41;;;;;;;0.60;0.57;;;14.00;41.90;;;;;;4860234;28;20186;-86
2021/09/01 07:53:04;;;;;;;0.63;0.53;;;13.60;40.40;;;;;;4858803;28;20190;-86
2021/09/01 07:55:27;;;;;;;1.17;0.80;;;14.30;41.70;;;;;;4859157;28;20221;-83
2021/09/01 07:57:49;;;;;;;0.63;0.50;;;14.10;41.30;;;;;;4860393;28;20182;-86
2021/09/01 08:00:13;;;;;;;0.73;0.60;;;14.50;42.40;;;;;;4859599;28;20190;-89
2021/09/01 08:02:36;;;;;;;0.50;0.50;;;;;;;;;;4840319;28;20241;-82
2021/09/01 08:04:59;;;;;;;0.30;0.30;;;;;;;;;;4860082;28;20279;-83
2021/09/01 08:07:23;;;;;;;0.30;0.30;;;14.80;44.40;;;;;;4858707;28;20208;-84
2021/09/01 08:09:46;;;;;;;0.60;0.40;;;;;;;;;;4859346;28;20745;-87
2021/09/01 08:12:10;;;;;;;1.07;0.77;;;14.60;44.80;;;;;;4858514;28;20206;-83
2021/09/01 08:14:33;;;;;;;0.60;0.60;;;;;;;;;;4859754;28;20236;-81
2021/09/01 08:16:55;;;;;;;0.67;0.50;;;14.30;45.50;;;;;;4858627;28;20292;-81
2021/09/01 08:19:18;;;;;;;1.33;0.97;;;15.30;45.90;;;;;;4838499;28;20206;-78
2021/09/01 08:21:40;;;;;;;0.27;0.27;;;;;;;;;;4822806;28;20199;-81
2021/09/01 08:24:05;;;;;;;1.03;0.73;;;15.50;46.30;;;;;;4838228;28;20730;-81
2021/09/01 08:26:27;;;;;;;0.80;0.70;;;15.30;45.80;;;;;;4838977;28;20226;-82
2021/09/01 08:28:51;;;;;;;0.50;0.50;;;15.40;45.50;;;;;;4839765;28;20202;-79
2021/09/01 08:31:14;;;;;;;1.40;1.00;;;15.70;45.80;;;;;;4839928;28;20434;-82
2021/09/01 08:33:36;;;;;;;0.70;0.60;;;15.30;45.80;;;;;;4840375;28;20931;-80
2021/09/01 08:36:00;;;;;;;0.87;0.67;;;;;;;;;;4839241;28;20253;-83
2021/09/01 08:38:23;;;;;;;1.50;0.87;;;;;;;;;;4840029;28;20248;-79
2021/09/01 08:40:50;;;;;;;0.47;0.40;;;16.10;45.90;;;;;;4840421;28;20186;-82
2021/09/01 08:43:13;;;;;;;1.43;0.97;;;15.10;47.20;;;;;;4840013;28;20544;-80
2021/09/01 08:45:36;;;;;;;0.80;0.57;;;16.00;47.10;;;;;;4839942;28;20671;-81
2021/09/01 08:47:59;;;;;;;0.63;0.50;;;;;;;;;;4838965;28;20233;-86
2021/09/01 08:50:21;;;;;;;0.50;0.40;;;;;;;;;;4839422;28;20675;-78
2021/09/01 08:52:44;;;;;;;0.83;0.57;;;15.90;47.20;;;;;;4840110;28;20241;-81
2021/09/01 08:55:08;;;;;;;1.60;1.03;;;16.20;47.50;;;;;;4843028;28;20185;-81
2021/09/01 08:57:33;;;;;;;0.83;0.67;;;16.20;47.90;;;;;;4878231;28;20216;-75
2021/09/01 08:59:56;;;;;;;0.80;0.60;;;;;;;;;;4877410;28;20704;-79
2021/09/01 09:02:28;;;;;;;1.40;0.93;;;16.70;48.40;;;;;;4876078;28;20189;-86
2021/09/01 09:04:50;;;;;;;0.77;0.50;;;;;;;;;;4878341;28;20174;-75
2021/09/01 09:07:16;;;;;;;1.70;1.00;;;18.00;49.30;;;;;;4877600;28;20213;-76
2021/09/01 09:09:40;;;;;;;1.17;0.77;;;18.10;50.00;;;;;;4877273;28;20552;-79
2021/09/01 09:12:05;;;;;;;0.87;0.57;;;19.00;50.50;;;;;;4877687;28;20190;-83
2021/09/01 09:14:31;;;;;;;1.20;0.70;;;19.40;51.00;;;;;;4877996;28;20762;-80
2021/09/01 09:17:02;;;;;;;0.90;0.50;;;20.00;51.40;;;;;;4860086;28;20202;-88
2021/09/01 09:19:45;;;;;;;0.50;0.40;;;21.10;52.10;;;;;;4858230;28;20186;-83
2021/09/01 09:22:08;;;;;;;2.97;1.47;;;21.00;52.10;;;;;;4859096;28;20208;-79
2021/09/01 09:24:33;;;;;;;1.40;0.80;;;22.00;52.80;;;;;;4859735;28;20206;-81
2021/09/01 09:26:56;;;;;;;0.83;0.47;;;22.20;53.80;;;;;;4877573;28;20236;-81
2021/09/01 09:29:20;;;;;;;1.83;1.00;;;23.60;55.20;;;;;;4874644;28;20218;-81
2021/09/01 09:31:46;;;;;;;1.13;0.60;;;24.20;56.30;;;;;;4877813;28;20197;-79
2021/09/01 09:34:10;;;;;;;2.53;1.20;;;24.10;56.80;;;;;;4892667;28;20615;-86
2021/09/01 09:36:33;;;;;;;1.33;0.67;;;;;;;;;;4876492;28;20185;-82
2021/09/01 09:38:56;;;;;;;0.93;0.50;;;;;;;;;;4876703;28;20208;-76
2021/09/01 09:41:24;;;;;;;1.27;0.80;;;22.40;55.60;;;;;;4877100;28;20308;-82
2021/09/01 09:43:47;;;;;;;0.97;0.53;;;;;;;;;;4877326;28;20604;-78
2021/09/01 09:46:11;;;;;;;2.53;1.13;;;22.60;54.40;;;;;;4859232;28;20288;-78
2021/09/01 09:48:37;;;;;;;3.83;2.10;;;22.60;55.60;;;;;;4876598;28;20186;-80
2021/09/01 09:51:02;;;;;;;0.90;0.60;;;22.50;55.60;;;;;;4877151;28;20647;-79
2021/09/01 09:53:36;;;;;;;0.50;0.30;;;22.30;55.40;;;;;;4877024;28;20598;-84
2021/09/01 09:56:17;;;;;;;0.90;0.60;;;21.70;54.80;;;;;;4891427;28;20783;-82
2021/09/01 09:58:42;;;;;;;2.60;1.33;;;21.00;55.00;;;;;;4876330;28;20175;-80
2021/09/01 10:01:07;;;;;;;0.63;0.40;;;20.50;54.40;;;;;;4874893;28;20185;-85
2021/09/01 10:03:30;;;;;;;1.00;0.67;;;;;;;;;;4877062;28;20180;-80
2021/09/01 10:05:54;;;;;;;1.17;0.70;;;19.40;53.00;;;;;;4892295;28;20209;-81
2021/09/01 10:08:18;;;;;;;1.90;1.20;;;;;;;;;;4876697;28;20864;-80
2021/09/01 10:10:43;;;;;;;1.77;0.90;;;19.00;53.00;;;;;;4858545;28;20256;-81
2021/09/01 10:13:06;;;;;;;1.37;0.70;;;;;;;;;;4858689;28;20198;-86
2021/09/01 10:15:32;;;;;;;1.37;0.70;;;18.80;52.20;;;;;;4876788;28;20190;-83
2021/09/01 10:18:01;;;;;;;0.87;0.60;;;18.40;52.30;;;;;;4876785;28;20559;-85
2021/09/01 10:20:25;;;;;;;0.70;0.50;;;18.30;52.20;;;;;;4858101;28;20198;-78
2021/09/01 10:23:00;;;;;;;0.83;0.57;;;18.20;52.10;;;;;;4859168;28;20198;-82
2021/09/01 10:25:33;;;;;;;0.47;0.30;;;18.30;52.00;;;;;;4876662;28;20323;-86
2021/09/01 10:28:31;;;;;;;2.20;0.83;;;18.90;52.10;;;;;;4858717;28;20264;-81
2021/09/01 10:31:27;;;;;;;1.33;0.70;;;19.70;52.40;;;;;;4876761;28;20244;-78
2021/09/01 10:33:51;;;;;;;1.27;0.67;;;19.30;52.90;;;;;;4874369;28;20205;-82
2021/09/01 10:36:59;;;;;;;2.10;1.00;;;19.10;52.30;;;;;;4858504;28;20221;-78
2021/09/01 10:39:47;;;;;;;1.73;0.83;;;21.10;53.10;;;;;;4830757;28;20197;-83
2021/09/01 10:42:46;;;;;;;2.67;1.07;;;24.00;55.60;;;;;;4859301;28;20562;-83
2021/09/01 10:45:15;;;;;;;2.60;1.03;;;27.00;43.70;;;;;;4841903;28;20200;-75
2021/09/01 10:48:14;;;;;;;1.30;0.60;;;28.40;45.60;;;;;;4875921;28;20262;-86
2021/09/01 10:50:39;;;;;;;1.27;0.57;;;29.30;46.00;;;;;;4875189;28;20200;-79
2021/09/01 10:53:06;;;;;;;1.33;0.63;;;30.70;47.20;;;;;;4892009;28;20192;-81
2021/09/01 10:55:32;;;;;;;1.63;0.60;;;31.20;47.30;;;;;;4876062;28;20271;-81
2021/09/01 10:58:15;;;;;;;2.60;0.90;;;32.10;47.80;;;;;;4874992;28;20564;-78
2021/09/01 11:00:39;;;;;;;24.60;6.90;;;31.30;48.30;;;;;;4873456;28;20192;-80
2021/09/01 11:03:01;;;;;;;1.83;0.60;;;;;;;;;;4874739;28;20200;-81
2021/09/01 11:05:24;;;;;;;1.13;0.40;;;;;;;;;;4876095;28;20189;-84
2021/09/01 11:07:47;;;;;;;1.90;0.67;;;27.70;46.00;;;;;;4876130;28;20208;-78
2021/09/01 11:10:10;;;;;;;4.47;1.40;;;28.10;46.80;;;;;;4857102;28;20202;-81
2021/09/01 11:12:35;;;;;;;2.53;0.80;;;26.80;46.30;;;;;;4857972;28;20237;-81
2021/09/01 11:14:58;;;;;;;2.03;0.70;;;26.60;46.20;;;;;;4876201;28;20190;-82
2021/09/01 11:17:22;;;;;;;5.07;1.43;;;26.30;45.20;;;;;;4875440;28;20181;-79
2021/09/01 11:19:46;;;;;;;1.23;0.50;;;25.60;45.80;;;;;;4875128;28;20246;-76
2021/09/01 11:22:10;;;;;;;3.83;1.33;;;24.70;60.20;;;;;;4857780;28;20730;-74
2021/09/01 11:24:43;;;;;;;2.00;0.77;;;24.60;59.10;;;;;;4875746;28;20204;-81
2021/09/01 11:27:12;;;;;;;1.93;0.63;;;23.70;59.40;;;;;;4875455;28;20210;-80
2021/09/01 11:29:36;;;;;;;2.10;0.73;;;24.30;59.60;;;;;;4875112;28;20548;-77
2021/09/01 11:31:59;;;;;;;1.90;0.70;;;;;;;;;;4875817;28;20183;-83
2021/09/01 11:34:23;;;;;;;2.63;0.90;;;;;;;;;;4875588;28;20560;-78
2021/09/01 11:36:46;;;;;;;1.10;0.50;;;;;;;;;;4875741;28;20204;-78
2021/09/01 11:39:10;;;;;;;2.87;0.97;;;24.60;59.30;;;;;;4874821;28;20195;-80
2021/09/01 11:41:33;;;;;;;1.00;0.47;;;;;;;;;;4875508;28;20553;-84
2021/09/01 11:44:00;;;;;;;2.17;0.83;;;24.10;59.70;;;;;;4857691;28;20199;-79
2021/09/01 11:46:31;;;;;;;1.17;0.50;;;24.00;59.70;;;;;;4875150;28;20641;-80
2021/09/01 11:49:02;;;;;;;1.93;0.77;;;23.20;58.90;;;;;;4874739;28;20544;-81
2021/09/01 11:51:29;;;;;;;0.73;0.33;;;23.20;59.10;;;;;;4875667;28;20768;-82
2021/09/01 11:53:52;;;;;;;3.47;1.33;;;;;;;;;;4857240;28;20276;-78
2021/09/01 11:56:15;;;;;;;3.53;1.27;;;;;;;;;;4854481;28;20234;-79
2021/09/01 11:58:38;;;;;;;6.77;2.67;;;22.10;58.40;;;;;;4838069;28;20220;-78
2021/09/01 12:01:03;;;;;;;1.90;0.80;;;21.70;58.20;;;;;;4857834;28;20185;-79
2021/09/01 12:03:27;;;;;;;1.17;0.53;;;21.70;58.10;;;;;;4859926;28;20185;-79
2021/09/01 12:05:50;;;;;;;1.00;0.50;;;;;;;;;;4859913;28;20184;-79
2021/09/01 12:08:17;;;;;;;2.60;1.07;;;21.60;57.90;;;;;;4859578;28;20239;-83
2021/09/01 12:10:41;;;;;;;1.60;0.80;;;21.60;57.80;;;;;;4859218;28;20542;-81
2021/09/01 12:13:04;;;;;;;1.30;0.53;;;;;;;;;;4859535;28;20192;-75
2021/09/01 12:15:27;;;;;;;2.90;0.90;;;;;;;;;;4859707;28;20181;-79
2021/09/01 12:18:01;;;;;;;1.80;0.80;;;23.60;59.00;;;;;;4852717;28;20186;-79
2021/09/01 12:20:26;;;;;;;1.20;0.43;;;25.10;44.80;;;;;;4838666;28;20229;-77
2021/09/01 12:22:48;;;;;;;1.63;0.60;;;;;;;;;;4840558;28;20711;-81
2021/09/01 12:25:15;;;;;;;3.93;1.30;;;27.80;45.60;;;;;;4838966;28;20741;-76
2021/09/01 12:27:40;;;;;;;1.93;0.70;;;29.00;46.40;;;;;;4840240;28;20638;-80
2021/09/01 12:30:03;;;;;;;1.93;0.70;;;29.20;46.40;;;;;;4833383;28;20243;-80
2021/09/01 12:32:26;;;;;;;0.83;0.37;;;;;;;;;;4821415;28;20215;-79
2021/09/01 12:34:54;;;;;;;1.80;0.60;;;28.80;47.00;;;;;;4820458;28;20258;-79
2021/09/01 12:37:25;;;;;;;3.13;1.07;;;28.00;46.90;;;;;;4820988;28;20804;-80
2021/09/01 12:39:51;;;;;;;1.80;0.67;;;27.50;46.00;;;;;;4820520;28;20212;-79
2021/09/01 12:42:26;;;;;;;3.37;1.13;;;28.50;46.40;;;;;;4821059;28;20208;-77
2021/09/01 12:44:49;;;;;;;2.03;0.67;;;31.60;47.50;;;;;;4819798;28;20627;-79
2021/09/01 12:47:12;;;;;;;4.23;1.23;;;33.40;48.30;;;;;;4820723;28;20542;-79
2021/09/01 12:49:44;;;;;;;1.57;0.57;;;33.50;49.50;;;;;;4820455;28;20218;-76
2021/09/01 12:52:07;;;;;;;2.63;0.87;;;32.20;48.30;;;;;;4820882;28;20641;-83
2021/09/01 12:54:31;;;;;;;2.07;0.80;;;30.70;48.50;;;;;;4820828;28;20611;-78
2021/09/01 12:56:54;;;;;;;2.00;0.80;;;;;;;;;;4835725;28;20625;-75
2021/09/01 12:59:17;;;;;;;3.33;1.23;;;;;;;;;;4837564;28;20664;-77
2021/09/01 13:01:41;;;;;;;1.47;0.57;;;26.10;45.90;;;;;;4854228;28;20251;-77
2021/09/01 13:04:04;;;;;;;1.20;0.50;;;;;;;;;;4858761;28;20237;-80
2021/09/01 13:06:26;;;;;;;1.63;0.70;;;;;;;;;;4858694;28;20189;-80
2021/09/01 13:08:49;;;;;;;1.90;0.77;;;;;;;;;;4858021;28;20248;-80
2021/09/01 13:11:13;;;;;;;4.27;1.47;;;24.40;59.80;;;;;;4858362;28;20184;-79
2021/09/01 13:13:35;;;;;;;1.70;0.70;;;;;;;;;;4858716;28;20215;-79